sensor_id;sensor_type;location;lat;lon;timestamp;pressure;altitude;pressure_sealevel;temperature;humidity
54194;BME280;40102;50.906;6.972;2022-10-18T00:00:28;101932.59;;;16.73;97.96
54194;BME280;40102;50.906;6.972;2022-10-18T00:02:54;101937.91;;;16.74;97.28
54194;BME280;40102;50.906;6.972;2022-10-18T00:05:19;101939.78;;;16.58;97.40
54194;BME280;40102;50.906;6.972;2022-10-18T00:07:44;101936.28;;;16.42;98.58
54194;BME280;40102;50.906;6.972;2022-10-18T00:10:10;101927.28;;;16.27;99.79
54194;BME280;40102;50.906;6.972;2022-10-18T00:12:36;101928.72;;;16.33;100.00
54194;BME280;40102;50.906;6.972;2022-10-18T00:15:04;101937.81;;;16.32;100.00
54194;BME280;40102;50.906;6.972;2022-10-18T00:17:30;101920.78;;;16.15;100.00
54194;BME280;40102;50.906;6.972;2022-10-18T00:19:57;101928.09;;;16.13;100.00
54194;BME280;40102;50.906;6.972;2022-10-18T00:22:23;101917.03;;;16.18;100.00
54194;BME280;40102;50.906;6.972;2022-10-18T00:24:49;101922.84;;;16.26;100.00
54194;BME280;40102;50.906;6.972;2022-10-18T00:27:15;101914.56;;;16.29;100.00
54194;BME280;40102;50.906;6.972;2022-10-18T00:29:40;101914.19;;;16.35;100.00
54194;BME280;40102;50.906;6.972;2022-10-18T00:32:05;101928.75;;;16.47;100.00
54194;BME280;40102;50.906;6.972;2022-10-18T00:34:31;101927.63;;;16.51;100.00
54194;BME280;40102;50.906;6.972;2022-10-18T00:36:56;101922.50;;;16.46;100.00
54194;BME280;40102;50.906;6.972;2022-10-18T00:39:21;101925.16;;;16.32;99.34
54194;BME280;40102;50.906;6.972;2022-10-18T00:41:48;101921.19;;;16.24;100.00
54194;BME280;40102;50.906;6.972;2022-10-18T00:46:41;101905.19;;;16.20;100.00
54194;BME280;40102;50.906;6.972;2022-10-18T00:49:11;101908.38;;;16.27;100.00
54194;BME280;40102;50.906;6.972;2022-10-18T00:51:41;101909.94;;;16.31;100.00
54194;BME280;40102;50.906;6.972;2022-10-18T00:54:08;101903.19;;;16.38;100.00
54194;BME280;40102;50.906;6.972;2022-10-18T00:56:34;101917.88;;;16.48;100.00
54194;BME280;40102;50.906;6.972;2022-10-18T00:59:00;101909.84;;;16.47;100.00
54194;BME280;40102;50.906;6.972;2022-10-18T01:01:25;101903.41;;;16.49;100.00
54194;BME280;40102;50.906;6.972;2022-10-18T01:03:51;101903.22;;;16.52;100.00
54194;BME280;40102;50.906;6.972;2022-10-18T01:06:16;101898.59;;;16.55;99.67
54194;BME280;40102;50.906;6.972;2022-10-18T01:08:49;101897.44;;;16.59;99.03
54194;BME280;40102;50.906;6.972;2022-10-18T01:11:30;101914.06;;;16.67;98.95
54194;BME280;40102;50.906;6.972;2022-10-18T01:17:34;101902.38;;;16.66;97.97
54194;BME280;40102;50.906;6.972;2022-10-18T01:25:52;101898.72;;;16.67;97.11
54194;BME280;40102;50.906;6.972;2022-10-18T01:31:14;101899.59;;;16.68;97.18
54194;BME280;40102;50.906;6.972;2022-10-18T01:33:57;101910.50;;;16.66;97.12
54194;BME280;40102;50.906;6.972;2022-10-18T01:36:39;101915.09;;;16.64;97.09
54194;BME280;40102;50.906;6.972;2022-10-18T01:39:09;101920.34;;;16.67;97.32
54194;BME280;40102;50.906;6.972;2022-10-18T01:41:38;101920.25;;;16.69;96.99
54194;BME280;40102;50.906;6.972;2022-10-18T01:44:08;101910.31;;;16.69;97.00
54194;BME280;40102;50.906;6.972;2022-10-18T01:46:35;101906.97;;;16.64;96.92
54194;BME280;40102;50.906;6.972;2022-10-18T01:49:01;101901.69;;;16.63;96.96
54194;BME280;40102;50.906;6.972;2022-10-18T01:51:29;101905.63;;;16.57;96.85
54194;BME280;40102;50.906;6.972;2022-10-18T01:53:56;101906.09;;;16.35;98.73
54194;BME280;40102;50.906;6.972;2022-10-18T01:56:30;101895.03;;;16.10;100.00
54194;BME280;40102;50.906;6.972;2022-10-18T01:59:33;101895.69;;;15.99;100.00
54194;BME280;40102;50.906;6.972;2022-10-18T02:04:50;101904.28;;;16.06;100.00
54194;BME280;40102;50.906;6.972;2022-10-18T02:07:31;101898.13;;;16.18;100.00
54194;BME280;40102;50.906;6.972;2022-10-18T02:12:28;101893.72;;;16.31;100.00
54194;BME280;40102;50.906;6.972;2022-10-18T02:14:57;101881.19;;;16.30;100.00
54194;BME280;40102;50.906;6.972;2022-10-18T02:17:27;101895.00;;;16.40;100.00
54194;BME280;40102;50.906;6.972;2022-10-18T02:19:54;101889.50;;;16.41;100.00
54194;BME280;40102;50.906;6.972;2022-10-18T02:22:23;101885.94;;;16.41;100.00
54194;BME280;40102;50.906;6.972;2022-10-18T02:24:53;101887.47;;;16.45;100.00
54194;BME280;40102;50.906;6.972;2022-10-18T02:27:20;101883.81;;;16.46;100.00
54194;BME280;40102;50.906;6.972;2022-10-18T02:29:46;101881.78;;;16.49;100.00
54194;BME280;40102;50.906;6.972;2022-10-18T02:35:10;101891.34;;;16.55;100.00
54194;BME280;40102;50.906;6.972;2022-10-18T02:37:38;101880.84;;;16.50;100.00
54194;BME280;40102;50.906;6.972;2022-10-18T02:40:07;101881.78;;;16.49;99.86
54194;BME280;40102;50.906;6.972;2022-10-18T02:42:35;101894.06;;;16.55;99.65
54194;BME280;40102;50.906;6.972;2022-10-18T02:45:01;101907.28;;;16.60;99.94
54194;BME280;40102;50.906;6.972;2022-10-18T02:47:26;101897.81;;;16.52;99.73
54194;BME280;40102;50.906;6.972;2022-10-18T02:49:52;101894.81;;;16.57;99.60
54194;BME280;40102;50.906;6.972;2022-10-18T02:52:17;101886.03;;;16.53;99.62
54194;BME280;40102;50.906;6.972;2022-10-18T02:54:42;101898.59;;;16.55;99.21
54194;BME280;40102;50.906;6.972;2022-10-18T02:57:08;101901.97;;;16.58;98.88
54194;BME280;40102;50.906;6.972;2022-10-18T02:59:33;101899.47;;;16.55;98.82
54194;BME280;40102;50.906;6.972;2022-10-18T03:01:58;101910.66;;;16.63;98.90
54194;BME280;40102;50.906;6.972;2022-10-18T03:04:24;101898.59;;;16.55;98.89
54194;BME280;40102;50.906;6.972;2022-10-18T03:06:49;101910.94;;;16.59;99.09
54194;BME280;40102;50.906;6.972;2022-10-18T03:09:14;101905.53;;;16.59;98.98
54194;BME280;40102;50.906;6.972;2022-10-18T03:11:40;101914.22;;;16.64;99.02
54194;BME280;40102;50.906;6.972;2022-10-18T03:14:05;101902.16;;;16.55;99.07
54194;BME280;40102;50.906;6.972;2022-10-18T03:16:30;101913.72;;;16.57;99.05
54194;BME280;40102;50.906;6.972;2022-10-18T03:18:56;101923.19;;;16.64;98.64
54194;BME280;40102;50.906;6.972;2022-10-18T03:21:21;101919.72;;;16.62;99.19
54194;BME280;40102;50.906;6.972;2022-10-18T03:23:46;101917.88;;;16.63;98.78
54194;BME280;40102;50.906;6.972;2022-10-18T03:26:12;101895.88;;;16.55;98.92
54194;BME280;40102;50.906;6.972;2022-10-18T03:28:37;101916.84;;;16.65;99.04
54194;BME280;40102;50.906;6.972;2022-10-18T03:31:03;101915.03;;;16.66;98.86
54194;BME280;40102;50.906;6.972;2022-10-18T03:33:29;101907.28;;;16.60;98.91
54194;BME280;40102;50.906;6.972;2022-10-18T03:35:55;101919.72;;;16.62;98.75
54194;BME280;40102;50.906;6.972;2022-10-18T03:38:20;101915.19;;;16.63;98.93
54194;BME280;40102;50.906;6.972;2022-10-18T03:40:46;101925.03;;;16.64;99.30
54194;BME280;40102;50.906;6.972;2022-10-18T03:43:11;101909.28;;;16.56;99.26
54194;BME280;40102;50.906;6.972;2022-10-18T03:45:37;101914.31;;;16.62;99.38
54194;BME280;40102;50.906;6.972;2022-10-18T03:48:02;101903.13;;;16.54;98.90
54194;BME280;40102;50.906;6.972;2022-10-18T03:50:28;101898.38;;;16.43;98.85
54194;BME280;40102;50.906;6.972;2022-10-18T03:52:53;101891.53;;;16.38;99.85
54194;BME280;40102;50.906;6.972;2022-10-18T03:55:19;101892.59;;;16.35;100.00
54194;BME280;40102;50.906;6.972;2022-10-18T03:57:45;101889.09;;;16.33;100.00
54194;BME280;40102;50.906;6.972;2022-10-18T04:00:11;101893.25;;;16.39;100.00
54194;BME280;40102;50.906;6.972;2022-10-18T04:02:36;101886.13;;;16.38;100.00
54194;BME280;40102;50.906;6.972;2022-10-18T04:05:02;101884.28;;;16.38;100.00
54194;BME280;40102;50.906;6.972;2022-10-18T04:07:27;101876.09;;;16.40;100.00
54194;BME280;40102;50.906;6.972;2022-10-18T04:09:53;101892.09;;;16.43;100.00
54194;BME280;40102;50.906;6.972;2022-10-18T04:12:18;101892.22;;;16.41;100.00
54194;BME280;40102;50.906;6.972;2022-10-18T04:14:44;101909.56;;;16.37;100.00
54194;BME280;40102;50.906;6.972;2022-10-18T04:17:09;101895.56;;;16.31;100.00
54194;BME280;40102;50.906;6.972;2022-10-18T04:19:34;101892.00;;;16.30;100.00
54194;BME280;40102;50.906;6.972;2022-10-18T04:21:59;101886.50;;;16.32;100.00
54194;BME280;40102;50.906;6.972;2022-10-18T04:24:25;101888.16;;;16.34;100.00
54194;BME280;40102;50.906;6.972;2022-10-18T04:26:50;101891.53;;;16.38;100.00
54194;BME280;40102;50.906;6.972;2022-10-18T04:29:15;101893.25;;;16.39;100.00
54194;BME280;40102;50.906;6.972;2022-10-18T04:31:41;101892.41;;;16.38;100.00
54194;BME280;40102;50.906;6.972;2022-10-18T04:34:07;101897.13;;;16.35;100.00
54194;BME280;40102;50.906;6.972;2022-10-18T04:36:33;101892.00;;;16.30;100.00
54194;BME280;40102;50.906;6.972;2022-10-18T04:38:58;101900.88;;;16.32;100.00
54194;BME280;40102;50.906;6.972;2022-10-18T04:41:23;101893.63;;;16.33;100.00
54194;BME280;40102;50.906;6.972;2022-10-18T04:43:48;101906.94;;;16.36;100.00
54194;BME280;40102;50.906;6.972;2022-10-18T04:46:14;101919.88;;;16.45;100.00
54194;BME280;40102;50.906;6.972;2022-10-18T04:48:39;101920.75;;;16.45;100.00
54194;BME280;40102;50.906;6.972;2022-10-18T04:51:05;101908.31;;;16.43;100.00
54194;BME280;40102;50.906;6.972;2022-10-18T04:53:30;101904.94;;;16.39;100.00
54194;BME280;40102;50.906;6.972;2022-10-18T04:55:56;101904.84;;;16.41;100.00
54194;BME280;40102;50.906;6.972;2022-10-18T04:58:22;101903.00;;;16.41;100.00
54194;BME280;40102;50.906;6.972;2022-10-18T05:00:48;101911.97;;;16.42;100.00
54194;BME280;40102;50.906;6.972;2022-10-18T05:03:14;101915.06;;;16.50;100.00
54194;BME280;40102;50.906;6.972;2022-10-18T05:05:40;101920.47;;;16.50;99.86
54194;BME280;40102;50.906;6.972;2022-10-18T05:08:05;101913.63;;;16.44;100.00
54194;BME280;40102;50.906;6.972;2022-10-18T05:10:31;101931.19;;;16.51;99.90
54194;BME280;40102;50.906;6.972;2022-10-18T05:12:56;101924.81;;;16.52;99.71
54194;BME280;40102;50.906;6.972;2022-10-18T05:15:22;101923.00;;;16.53;99.65
54194;BME280;40102;50.906;6.972;2022-10-18T05:17:47;101924.91;;;16.51;99.29
54194;BME280;40102;50.906;6.972;2022-10-18T05:20:13;101925.00;;;16.49;99.06
54194;BME280;40102;50.906;6.972;2022-10-18T05:22:38;101932.81;;;16.54;98.78
54194;BME280;40102;50.906;6.972;2022-10-18T05:25:04;101931.22;;;16.66;99.99
54194;BME280;40102;50.906;6.972;2022-10-18T05:27:29;101932.31;;;16.77;100.00
54194;BME280;40102;50.906;6.972;2022-10-18T05:29:55;101942.44;;;16.88;99.84
54194;BME280;40102;50.906;6.972;2022-10-18T05:32:23;101938.59;;;16.92;99.02
54194;BME280;40102;50.906;6.972;2022-10-18T05:34:49;101934.63;;;16.83;98.25
54194;BME280;40102;50.906;6.972;2022-10-18T05:37:14;101932.31;;;16.77;97.86
54194;BME280;40102;50.906;6.972;2022-10-18T05:39:40;101934.91;;;16.79;97.60
54194;BME280;40102;50.906;6.972;2022-10-18T05:42:05;101937.03;;;16.74;97.16
54194;BME280;40102;50.906;6.972;2022-10-18T05:44:33;101939.06;;;16.70;97.44
54194;BME280;40102;50.906;6.972;2022-10-18T05:46:59;101940.47;;;16.62;97.62
54194;BME280;40102;50.906;6.972;2022-10-18T05:49:24;101939.50;;;16.63;97.26
54194;BME280;40102;50.906;6.972;2022-10-18T05:51:50;101936.22;;;16.58;97.46
54194;BME280;40102;50.906;6.972;2022-10-18T05:54:16;101940.84;;;16.56;97.93
54194;BME280;40102;50.906;6.972;2022-10-18T05:56:41;101944.50;;;16.55;98.09
54194;BME280;40102;50.906;6.972;2022-10-18T05:59:07;101940.16;;;16.52;98.16
54194;BME280;40102;50.906;6.972;2022-10-18T06:01:37;101935.81;;;16.49;98.26
54194;BME280;40102;50.906;6.972;2022-10-18T06:04:03;101950.09;;;16.51;98.48
54194;BME280;40102;50.906;6.972;2022-10-18T06:06:30;101947.47;;;16.50;98.52
54194;BME280;40102;50.906;6.972;2022-10-18T06:08:56;101963.31;;;16.56;98.63
54194;BME280;40102;50.906;6.972;2022-10-18T06:11:21;101945.75;;;16.49;98.76
54194;BME280;40102;50.906;6.972;2022-10-18T06:13:48;101947.38;;;16.51;98.89
54194;BME280;40102;50.906;6.972;2022-10-18T06:16:16;101951.91;;;16.51;98.74
54194;BME280;40102;50.906;6.972;2022-10-18T06:18:42;101946.63;;;16.49;98.50
54194;BME280;40102;50.906;6.972;2022-10-18T06:21:08;101946.63;;;16.49;98.80
54194;BME280;40102;50.906;6.972;2022-10-18T06:23:34;101953.66;;;16.52;98.43
54194;BME280;40102;50.906;6.972;2022-10-18T06:26:01;101937.84;;;16.46;98.79
54194;BME280;40102;50.906;6.972;2022-10-18T06:28:27;101939.47;;;16.48;98.93
54194;BME280;40102;50.906;6.972;2022-10-18T06:30:53;101943.50;;;16.41;99.11
54194;BME280;40102;50.906;6.972;2022-10-18T06:33:18;101941.09;;;16.37;100.00
54194;BME280;40102;50.906;6.972;2022-10-18T06:35:56;101943.88;;;16.35;99.85
54194;BME280;40102;50.906;6.972;2022-10-18T06:38:21;101944.16;;;16.31;99.80
54194;BME280;40102;50.906;6.972;2022-10-18T06:40:47;101946.19;;;16.27;100.00
54194;BME280;40102;50.906;6.972;2022-10-18T06:43:13;101954.47;;;16.24;100.00
54194;BME280;40102;50.906;6.972;2022-10-18T06:45:38;101960.25;;;16.32;100.00
54194;BME280;40102;50.906;6.972;2022-10-18T06:48:03;101954.47;;;16.24;100.00
54194;BME280;40102;50.906;6.972;2022-10-18T06:50:29;101952.13;;;16.18;100.00
54194;BME280;40102;50.906;6.972;2022-10-18T06:52:54;101962.41;;;16.11;100.00
54194;BME280;40102;50.906;6.972;2022-10-18T06:55:20;101955.47;;;16.07;100.00
54194;BME280;40102;50.906;6.972;2022-10-18T06:57:45;101956.41;;;16.06;100.00
54194;BME280;40102;50.906;6.972;2022-10-18T07:00:11;101962.09;;;16.02;100.00
54194;BME280;40102;50.906;6.972;2022-10-18T07:02:36;101973.06;;;15.99;100.00
54194;BME280;40102;50.906;6.972;2022-10-18T07:05:08;101970.47;;;15.81;100.00
54194;BME280;40102;50.906;6.972;2022-10-18T07:07:34;101986.56;;;15.83;100.00
54194;BME280;40102;50.906;6.972;2022-10-18T07:09:59;101982.31;;;15.79;100.00
54194;BME280;40102;50.906;6.972;2022-10-18T07:12:24;101984.75;;;15.83;100.00
54194;BME280;40102;50.906;6.972;2022-10-18T07:14:50;101984.75;;;15.83;100.00
54194;BME280;40102;50.906;6.972;2022-10-18T07:17:15;101988.66;;;15.78;100.00
54194;BME280;40102;50.906;6.972;2022-10-18T07:19:40;101982.41;;;15.77;100.00
54194;BME280;40102;50.906;6.972;2022-10-18T07:22:06;101990.50;;;15.77;100.00
54194;BME280;40102;50.906;6.972;2022-10-18T07:24:31;101998.75;;;15.74;100.00
54194;BME280;40102;50.906;6.972;2022-10-18T07:26:57;101999.63;;;15.75;100.00
54194;BME280;40102;50.906;6.972;2022-10-18T07:29:22;101998.41;;;15.80;100.00
54194;BME280;40102;50.906;6.972;2022-10-18T07:31:47;102013.97;;;15.91;100.00
54194;BME280;40102;50.906;6.972;2022-10-18T07:34:13;102015.72;;;15.92;100.00
54194;BME280;40102;50.906;6.972;2022-10-18T07:36:39;102017.38;;;15.95;100.00
54194;BME280;40102;50.906;6.972;2022-10-18T07:39:04;102019.72;;;16.01;100.00
54194;BME280;40102;50.906;6.972;2022-10-18T07:41:29;102022.94;;;16.07;100.00
54194;BME280;40102;50.906;6.972;2022-10-18T07:43:57;102031.81;;;16.09;100.00
54194;BME280;40102;50.906;6.972;2022-10-18T07:46:23;102032.41;;;16.14;100.00
54194;BME280;40102;50.906;6.972;2022-10-18T07:48:48;102025.19;;;16.15;100.00
54194;BME280;40102;50.906;6.972;2022-10-18T07:51:14;102023.25;;;16.17;100.00
54194;BME280;40102;50.906;6.972;2022-10-18T07:53:39;102029.53;;;16.17;100.00
54194;BME280;40102;50.906;6.972;2022-10-18T07:56:08;102037.44;;;16.20;100.00
54194;BME280;40102;50.906;6.972;2022-10-18T07:58:36;102035.72;;;16.19;100.00
54194;BME280;40102;50.906;6.972;2022-10-18T08:01:05;102039.38;;;16.18;100.00
54194;BME280;40102;50.906;6.972;2022-10-18T08:03:31;102048.84;;;16.26;100.00
54194;BME280;40102;50.906;6.972;2022-10-18T08:05:57;102044.59;;;16.22;100.00
54194;BME280;40102;50.906;6.972;2022-10-18T08:08:23;102046.16;;;16.26;100.00
54194;BME280;40102;50.906;6.972;2022-10-18T08:10:49;102052.41;;;16.26;100.00
54194;BME280;40102;50.906;6.972;2022-10-18T08:13:15;102057.47;;;16.32;100.00
54194;BME280;40102;50.906;6.972;2022-10-18T08:15:40;102051.47;;;16.27;100.00
54194;BME280;40102;50.906;6.972;2022-10-18T08:18:06;102052.94;;;16.33;100.00
54194;BME280;40102;50.906;6.972;2022-10-18T08:20:31;102052.94;;;16.33;100.00
54194;BME280;40102;50.906;6.972;2022-10-18T08:22:58;102058.25;;;16.34;100.00
54194;BME280;40102;50.906;6.972;2022-10-18T08:25:23;102050.31;;;16.31;100.00
54194;BME280;40102;50.906;6.972;2022-10-18T08:27:49;102055.63;;;16.33;100.00
54194;BME280;40102;50.906;6.972;2022-10-18T08:30:14;102058.25;;;16.34;100.00
54194;BME280;40102;50.906;6.972;2022-10-18T08:32:40;102064.44;;;16.36;100.00
54194;BME280;40102;50.906;6.972;2022-10-18T08:35:05;102056.31;;;16.36;100.00
54194;BME280;40102;50.906;6.972;2022-10-18T08:37:31;102054.59;;;16.35;100.00
54194;BME280;40102;50.906;6.972;2022-10-18T08:39:56;102060.75;;;16.37;100.00
54194;BME280;40102;50.906;6.972;2022-10-18T08:45:26;102067.91;;;16.38;100.00
54194;BME280;40102;50.906;6.972;2022-10-18T08:47:53;102073.22;;;16.40;100.00
54194;BME280;40102;50.906;6.972;2022-10-18T08:50:40;102072.34;;;16.39;100.00
54194;BME280;40102;50.906;6.972;2022-10-18T08:56:06;102092.81;;;16.43;100.00
54194;BME280;40102;50.906;6.972;2022-10-18T08:58:41;102082.53;;;16.34;100.00
54194;BME280;40102;50.906;6.972;2022-10-18T09:01:29;102088.91;;;16.33;100.00
54194;BME280;40102;50.906;6.972;2022-10-18T09:06:36;102086.38;;;16.30;100.00
54194;BME280;40102;50.906;6.972;2022-10-18T09:12:29;102106.75;;;16.36;100.00
54194;BME280;40102;50.906;6.972;2022-10-18T09:15:13;102092.66;;;16.31;100.00
54194;BME280;40102;50.906;6.972;2022-10-18T09:20:22;102104.84;;;16.38;100.00
54194;BME280;40102;50.906;6.972;2022-10-18T09:26:09;102098.13;;;16.29;100.00
54194;BME280;40102;50.906;6.972;2022-10-18T09:31:31;102103.09;;;16.37;100.00
54194;BME280;40102;50.906;6.972;2022-10-18T09:34:07;102107.34;;;16.41;100.00
54194;BME280;40102;50.906;6.972;2022-10-18T09:36:37;102112.66;;;16.42;100.00
54194;BME280;40102;50.906;6.972;2022-10-18T09:39:14;102104.84;;;16.38;100.00
54194;BME280;40102;50.906;6.972;2022-10-18T09:41:50;102113.53;;;16.43;100.00
54194;BME280;40102;50.906;6.972;2022-10-18T09:44:24;102107.34;;;16.41;100.00
54194;BME280;40102;50.906;6.972;2022-10-18T09:46:59;102106.22;;;16.45;100.00
54194;BME280;40102;50.906;6.972;2022-10-18T09:49:31;102102.66;;;16.44;100.00
54194;BME280;40102;50.906;6.972;2022-10-18T09:52:03;102115.69;;;16.52;100.00
54194;BME280;40102;50.906;6.972;2022-10-18T09:54:42;102119.19;;;16.54;99.95
54194;BME280;40102;50.906;6.972;2022-10-18T09:57:27;102112.41;;;16.47;100.00
54194;BME280;40102;50.906;6.972;2022-10-18T09:59:56;102123.72;;;16.53;99.55
54194;BME280;40102;50.906;6.972;2022-10-18T10:02:23;102115.78;;;16.50;99.90
54194;BME280;40102;50.906;6.972;2022-10-18T10:04:49;102122.94;;;16.51;100.00
54194;BME280;40102;50.906;6.972;2022-10-18T10:07:20;102120.22;;;16.51;100.00
54194;BME280;40102;50.906;6.972;2022-10-18T10:09:55;102115.63;;;16.53;100.00
54194;BME280;40102;50.906;6.972;2022-10-18T10:12:37;102121.03;;;16.53;100.00
54194;BME280;40102;50.906;6.972;2022-10-18T10:15:19;102129.03;;;16.55;100.00
54194;BME280;40102;50.906;6.972;2022-10-18T10:18:03;102136.00;;;16.59;100.00
54194;BME280;40102;50.906;6.972;2022-10-18T10:20:41;102125.56;;;16.53;100.00
54194;BME280;40102;50.906;6.972;2022-10-18T10:23:26;102124.69;;;16.52;100.00
54194;BME280;40102;50.906;6.972;2022-10-18T10:26:00;102137.81;;;16.59;100.00
54194;BME280;40102;50.906;6.972;2022-10-18T10:28:35;102127.38;;;16.52;100.00
54194;BME280;40102;50.906;6.972;2022-10-18T10:33:45;102140.53;;;16.59;100.00
54194;BME280;40102;50.906;6.972;2022-10-18T10:36:19;102139.75;;;16.57;100.00
54194;BME280;40102;50.906;6.972;2022-10-18T10:38:45;102138.78;;;16.58;100.00
54194;BME280;40102;50.906;6.972;2022-10-18T10:41:26;102141.47;;;16.58;100.00
54194;BME280;40102;50.906;6.972;2022-10-18T10:43:51;102136.25;;;16.55;100.00
54194;BME280;40102;50.906;6.972;2022-10-18T10:46:18;102155.78;;;16.60;100.00
54194;BME280;40102;50.906;6.972;2022-10-18T10:51:12;102141.41;;;16.59;100.00
54194;BME280;40102;50.906;6.972;2022-10-18T10:56:25;102151.88;;;16.65;100.00
54194;BME280;40102;50.906;6.972;2022-10-18T10:58:52;102144.97;;;16.60;100.00
54194;BME280;40102;50.906;6.972;2022-10-18T11:01:25;102144.88;;;16.61;100.00
54194;BME280;40102;50.906;6.972;2022-10-18T11:03:54;102153.72;;;16.65;100.00
54194;BME280;40102;50.906;6.972;2022-10-18T11:06:34;102147.66;;;16.60;100.00
54194;BME280;40102;50.906;6.972;2022-10-18T11:09:04;102145.06;;;16.58;100.00
54194;BME280;40102;50.906;6.972;2022-10-18T11:11:38;102148.53;;;16.60;100.00
54194;BME280;40102;50.906;6.972;2022-10-18T11:22:35;102156.03;;;16.71;100.00
54194;BME280;40102;50.906;6.972;2022-10-18T11:25:03;102160.50;;;16.72;100.00
54194;BME280;40102;50.906;6.972;2022-10-18T11:27:40;102148.22;;;16.66;100.00
54194;BME280;40102;50.906;6.972;2022-10-18T11:30:40;102156.81;;;16.73;100.00
54194;BME280;40102;50.906;6.972;2022-10-18T11:36:37;102141.66;;;16.70;100.00
54194;BME280;40102;50.906;6.972;2022-10-18T11:39:18;102148.63;;;16.74;100.00
54194;BME280;40102;50.906;6.972;2022-10-18T11:42:26;102131.91;;;16.68;100.00
54194;BME280;40102;50.906;6.972;2022-10-18T11:44:58;102132.50;;;16.73;100.00
54194;BME280;40102;50.906;6.972;2022-10-18T11:53:28;102127.88;;;17.05;100.00
54194;BME280;40102;50.906;6.972;2022-10-18T11:56:18;102130.91;;;17.29;100.00
54194;BME280;40102;50.906;6.972;2022-10-18T12:04:37;102108.06;;;17.77;98.41
54194;BME280;40102;50.906;6.972;2022-10-18T12:07:04;102109.22;;;17.73;96.54
54194;BME280;40102;50.906;6.972;2022-10-18T12:09:40;102105.09;;;17.67;96.06
54194;BME280;40102;50.906;6.972;2022-10-18T12:12:30;102107.19;;;17.62;96.57
54194;BME280;40102;50.906;6.972;2022-10-18T12:15:00;102119.94;;;17.60;96.39
54194;BME280;40102;50.906;6.972;2022-10-18T12:19:57;102115.09;;;17.51;96.79
54194;BME280;40102;50.906;6.972;2022-10-18T12:22:31;102113.84;;;17.57;97.75
54194;BME280;40102;50.906;6.972;2022-10-18T12:24:59;102108.16;;;17.75;99.26
54194;BME280;40102;50.906;6.972;2022-10-18T12:27:50;102112.41;;;17.94;96.94
54194;BME280;40102;50.906;6.972;2022-10-18T12:33:18;102109.41;;;17.98;92.94
54194;BME280;40102;50.906;6.972;2022-10-18T12:38:43;102101.72;;;18.46;98.11
54194;BME280;40102;50.906;6.972;2022-10-18T12:41:20;102090.25;;;18.82;96.25
54194;BME280;40102;50.906;6.972;2022-10-18T12:44:15;102106.34;;;19.23;88.55
54194;BME280;40102;50.906;6.972;2022-10-18T12:47:03;102090.63;;;19.28;83.56
54194;BME280;40102;50.906;6.972;2022-10-18T12:49:31;102094.63;;;19.48;83.94
54194;BME280;40102;50.906;6.972;2022-10-18T12:52:06;102099.09;;;19.62;83.56
54194;BME280;40102;50.906;6.972;2022-10-18T12:55:02;102098.97;;;19.76;82.08
54194;BME280;40102;50.906;6.972;2022-10-18T13:05:57;102099.81;;;19.89;77.99
54194;BME280;40102;50.906;6.972;2022-10-18T13:08:32;102103.22;;;19.67;78.74
54194;BME280;40102;50.906;6.972;2022-10-18T13:24:22;102104.59;;;18.97;80.12
54194;BME280;40102;50.906;6.972;2022-10-18T13:32:23;102106.81;;;18.65;83.15
54194;BME280;40102;50.906;6.972;2022-10-18T13:34:51;102110.09;;;18.56;83.36
54194;BME280;40102;50.906;6.972;2022-10-18T13:37:18;102108.03;;;18.59;83.60
54194;BME280;40102;50.906;6.972;2022-10-18T13:39:45;102106.59;;;18.68;82.47
54194;BME280;40102;50.906;6.972;2022-10-18T13:44:41;102109.03;;;18.58;81.98
54194;BME280;40102;50.906;6.972;2022-10-18T13:47:11;102109.84;;;18.46;81.75
54194;BME280;40102;50.906;6.972;2022-10-18T14:06:20;102116.16;;;18.73;80.11
54194;BME280;40102;50.906;6.972;2022-10-18T14:14:04;102119.72;;;19.26;79.72
54194;BME280;40102;50.906;6.972;2022-10-18T14:19:07;102115.03;;;19.28;74.31
54194;BME280;40102;50.906;6.972;2022-10-18T14:21:37;102117.41;;;19.20;74.86
54194;BME280;40102;50.906;6.972;2022-10-18T14:24:21;102109.16;;;19.09;74.63
54194;BME280;40102;50.906;6.972;2022-10-18T14:26:47;102113.63;;;19.10;74.48
54194;BME280;40102;50.906;6.972;2022-10-18T14:29:32;102122.19;;;19.04;74.19
54194;BME280;40102;50.906;6.972;2022-10-18T14:31:57;102123.16;;;19.03;74.56
54194;BME280;40102;50.906;6.972;2022-10-18T14:34:24;102117.50;;;18.93;74.01
54194;BME280;40102;50.906;6.972;2022-10-18T14:36:50;102103.28;;;18.90;73.87
54194;BME280;40102;50.906;6.972;2022-10-18T14:39:19;102125.63;;;18.93;73.55
54194;BME280;40102;50.906;6.972;2022-10-18T14:41:53;102111.28;;;18.79;73.45
54194;BME280;40102;50.906;6.972;2022-10-18T14:44:24;102114.00;;;18.79;72.96
54194;BME280;40102;50.906;6.972;2022-10-18T14:49:18;102120.13;;;18.68;73.64
54194;BME280;40102;50.906;6.972;2022-10-18T14:51:46;102112.50;;;18.60;73.99
54194;BME280;40102;50.906;6.972;2022-10-18T14:54:18;102119.84;;;18.58;74.19
54194;BME280;40102;50.906;6.972;2022-10-18T14:56:45;102120.38;;;18.51;74.23
54194;BME280;40102;50.906;6.972;2022-10-18T14:59:16;102117.25;;;18.57;74.20
54194;BME280;40102;50.906;6.972;2022-10-18T15:02:15;102125.88;;;18.63;72.90
54194;BME280;40102;50.906;6.972;2022-10-18T15:04:46;102131.47;;;18.60;73.29
54194;BME280;40102;50.906;6.972;2022-10-18T15:07:18;102131.28;;;18.63;72.91
54194;BME280;40102;50.906;6.972;2022-10-18T15:09:46;102119.97;;;18.57;72.77
54194;BME280;40102;50.906;6.972;2022-10-18T15:12:13;102129.25;;;18.53;72.66
54194;BME280;40102;50.906;6.972;2022-10-18T15:14:41;102117.97;;;18.46;72.90